This is the latest recevied weather packets stored in our database for station/object SP8AQK-13. If no packets are shown the sender has not sent any weather packets the latest 10 day(s).
| Time | Temp. | Humidity | Pressure | Rain* | Wind** | Luminosity | Snow |
|---|---|---|---|---|---|---|---|
| 1778074971 | 26.11° C | 37% | 1008.1 hPa | - | - | - | - |
| 1778073771 | 26.11° C | 38% | 1008.3 hPa | - | - | - | - |
| 1778071369 | 26.67° C | 37% | 1008.3 hPa | - | - | - | - |
| 1778070168 | 26.11° C | 37% | 1008.5 hPa | - | - | - | - |
| 1778068968 | 26.67° C | 37% | 1008.5 hPa | - | - | - | - |
| 1778067767 | 26.11° C | 38% | 1008.6 hPa | - | - | - | - |
| 1778066566 | 26.11° C | 36% | 1008.6 hPa | - | - | - | - |
| 1778065365 | 26.11° C | 37% | 1008.6 hPa | - | - | - | - |
| 1778064164 | 25.56° C | 36% | 1008.7 hPa | - | - | - | - |
| 1778062964 | 25.56° C | 36% | 1008.7 hPa | - | - | - | - |
| 1778060562 | 23.89° C | 38% | 1008.8 hPa | - | - | - | - |
| 1778058161 | 23.33° C | 40% | 1008.6 hPa | - | - | - | - |
| 1778056960 | 22.78° C | 41% | 1008.7 hPa | - | - | - | - |
| 1778055759 | 22.22° C | 42% | 1008.6 hPa | - | - | - | - |
| 1778054558 | 22.78° C | 42% | 1008.5 hPa | - | - | - | - |
| 1778052157 | 21.67° C | 43% | 1008.7 hPa | - | - | - | - |
| 1778050956 | 21.67° C | 45% | 1008.5 hPa | - | - | - | - |
| 1778048555 | 22.78° C | 42% | 1008.4 hPa | - | - | - | - |
| 1778047354 | 21.67° C | 42% | 1008.7 hPa | - | - | - | - |
| 1778046153 | 20.56° C | 44% | 1008.9 hPa | - | - | - | - |
| 1778044953 | 20° C | 45% | 1009.1 hPa | - | - | - | - |
| 1778043752 | 17.78° C | 49% | 1009.3 hPa | - | - | - | - |
| 1778042551 | 15.56° C | 52% | 1009.5 hPa | - | - | - | - |
| 1778041350 | 15° C | 53% | 1009.7 hPa | - | - | - | - |
| 1778040150 | 13.89° C | 52% | 1010 hPa | - | - | - | - |
* Rain since midnight (hover to see other rain measurements)
** Current wind speed in m/s (hover to see current wind gust speed)